createdAt,value
2023-01-21T00:01:17.000Z,270.36
2023-01-21T00:03:20.000Z,270.39
2023-01-21T00:04:45.000Z,270.38
2023-01-21T00:06:48.000Z,270.39
2023-01-21T00:08:13.000Z,270.39
2023-01-21T00:10:16.000Z,270.39
2023-01-21T00:11:41.000Z,270.39
2023-01-21T00:13:45.000Z,270.4
2023-01-21T00:15:09.000Z,270.4
2023-01-21T00:17:13.000Z,270.42
2023-01-21T00:20:02.000Z,270.42
2023-01-21T00:21:26.000Z,270.42
2023-01-21T00:23:30.000Z,270.43
2023-01-21T00:24:54.000Z,270.43
2023-01-21T00:26:58.000Z,270.43
2023-01-21T00:28:22.000Z,270.43
2023-01-21T00:30:26.000Z,270.43
2023-01-21T00:31:50.000Z,270.42
2023-01-21T00:33:53.000Z,270.45
2023-01-21T00:35:18.000Z,270.45
2023-01-21T00:37:21.000Z,270.46
2023-01-21T00:38:46.000Z,270.47
2023-01-21T00:40:49.000Z,270.49
2023-01-21T00:42:14.000Z,270.49
2023-01-21T00:44:17.000Z,270.53
2023-01-21T00:45:42.000Z,270.54
2023-01-21T00:47:45.000Z,270.54
2023-01-21T00:49:10.000Z,270.54
2023-01-21T00:51:13.000Z,270.54
2023-01-21T00:52:38.000Z,270.54
2023-01-21T00:54:41.000Z,270.55
2023-01-21T00:57:31.000Z,270.59
2023-01-21T00:58:55.000Z,270.59
2023-01-21T01:00:59.000Z,270.58
2023-01-21T01:02:23.000Z,270.59
2023-01-21T01:04:27.000Z,270.62
2023-01-21T01:05:51.000Z,270.64
2023-01-21T01:07:55.000Z,270.67
2023-01-21T01:09:19.000Z,270.67
2023-01-21T01:11:23.000Z,270.7
2023-01-21T01:12:47.000Z,270.72
2023-01-21T01:14:50.000Z,270.73
2023-01-21T01:16:15.000Z,270.73
2023-01-21T01:18:18.000Z,270.74
2023-01-21T01:19:43.000Z,270.74
2023-01-21T01:21:46.000Z,270.74
2023-01-21T01:23:11.000Z,270.74
2023-01-21T01:25:14.000Z,270.73
2023-01-21T01:26:38.000Z,270.76
2023-01-21T01:28:45.000Z,270.76
2023-01-21T01:30:10.000Z,270.76
2023-01-21T01:32:13.000Z,270.76
2023-01-21T01:35:02.000Z,270.77
2023-01-21T01:36:27.000Z,270.79
2023-01-21T01:38:30.000Z,270.8
2023-01-21T01:39:55.000Z,270.79
2023-01-21T01:41:58.000Z,270.81
2023-01-21T01:43:22.000Z,270.81
2023-01-21T01:45:26.000Z,270.81
2023-01-21T01:46:50.000Z,270.81
2023-01-21T01:48:54.000Z,270.81
2023-01-21T01:50:18.000Z,270.81
2023-01-21T01:52:22.000Z,270.81
2023-01-21T01:53:46.000Z,270.81
2023-01-21T01:55:50.000Z,270.83
2023-01-21T01:57:14.000Z,270.81
2023-01-21T01:59:18.000Z,270.81
2023-01-21T02:00:42.000Z,270.81
2023-01-21T02:02:46.000Z,270.81
2023-01-21T02:04:10.000Z,270.83
2023-01-21T02:06:14.000Z,270.83
2023-01-21T02:07:38.000Z,270.83
2023-01-21T02:09:42.000Z,270.84
2023-01-21T02:12:31.000Z,270.81
2023-01-21T02:13:55.000Z,270.81
2023-01-21T02:15:59.000Z,270.81
2023-01-21T02:17:23.000Z,270.81
2023-01-21T02:19:27.000Z,270.83
2023-01-21T02:20:51.000Z,270.81
2023-01-21T02:22:55.000Z,270.8
2023-01-21T02:24:19.000Z,270.81
2023-01-21T02:26:23.000Z,270.81
2023-01-21T02:27:47.000Z,270.81
2023-01-21T02:29:51.000Z,270.8
2023-01-21T02:31:15.000Z,270.79
2023-01-21T02:33:19.000Z,270.77
2023-01-21T02:34:43.000Z,270.76
2023-01-21T02:36:47.000Z,270.74
2023-01-21T02:38:11.000Z,270.74
2023-01-21T02:40:14.000Z,270.73
2023-01-21T02:41:40.000Z,270.72
2023-01-21T02:43:43.000Z,270.7
2023-01-21T02:45:07.000Z,270.67
2023-01-21T02:47:11.000Z,270.64
2023-01-21T02:50:00.000Z,270.64
2023-01-21T02:51:25.000Z,270.64
2023-01-21T02:53:28.000Z,270.64
2023-01-21T02:54:53.000Z,270.64
2023-01-21T02:56:56.000Z,270.61
2023-01-21T02:58:20.000Z,270.61
2023-01-21T03:00:24.000Z,270.61
2023-01-21T03:01:48.000Z,270.59
2023-01-21T03:03:52.000Z,270.59
2023-01-21T03:05:16.000Z,270.55
2023-01-21T03:07:20.000Z,270.54
2023-01-21T03:08:44.000Z,270.53
2023-01-21T03:10:48.000Z,270.5
2023-01-21T03:12:12.000Z,270.5
2023-01-21T03:14:16.000Z,270.49
2023-01-21T03:15:40.000Z,270.49
2023-01-21T03:17:44.000Z,270.47
2023-01-21T03:19:08.000Z,270.49
2023-01-21T03:21:12.000Z,270.5
2023-01-21T03:22:36.000Z,270.49
2023-01-21T03:24:39.000Z,270.5
2023-01-21T03:27:29.000Z,270.53
2023-01-21T03:28:53.000Z,270.53
2023-01-21T03:30:57.000Z,270.54
2023-01-21T03:32:21.000Z,270.54
2023-01-21T03:34:25.000Z,270.53
2023-01-21T03:35:49.000Z,270.5
2023-01-21T03:37:53.000Z,270.49
2023-01-21T03:39:17.000Z,270.46
2023-01-21T03:41:20.000Z,270.46
2023-01-21T03:42:45.000Z,270.42
2023-01-21T03:44:48.000Z,270.4
2023-01-21T03:46:13.000Z,270.4
2023-01-21T03:48:16.000Z,270.39
2023-01-21T03:49:41.000Z,270.36
2023-01-21T03:51:44.000Z,270.32
2023-01-21T03:53:09.000Z,270.29
2023-01-21T03:55:12.000Z,270.28
2023-01-21T03:56:37.000Z,270.22
2023-01-21T03:58:40.000Z,270.2
2023-01-21T04:00:04.000Z,270.15
2023-01-21T04:02:08.000Z,270.13
2023-01-21T04:04:57.000Z,270.1
2023-01-21T04:06:21.000Z,270.07
2023-01-21T04:08:25.000Z,270.05
2023-01-21T04:09:49.000Z,270
2023-01-21T04:11:53.000Z,269.99
2023-01-21T04:13:17.000Z,269.99
2023-01-21T04:15:21.000Z,269.98
2023-01-21T04:16:45.000Z,269.94
2023-01-21T04:18:48.000Z,269.92
2023-01-21T04:20:13.000Z,269.87
2023-01-21T04:22:16.000Z,269.81
2023-01-21T04:23:41.000Z,269.78
2023-01-21T04:25:44.000Z,269.75
2023-01-21T04:27:09.000Z,269.73
2023-01-21T04:29:12.000Z,269.7
2023-01-21T04:30:36.000Z,269.67
2023-01-21T04:32:40.000Z,269.64
2023-01-21T04:34:04.000Z,269.59
2023-01-21T04:36:08.000Z,269.52
2023-01-21T04:37:32.000Z,269.48
2023-01-21T04:39:36.000Z,269.42
2023-01-21T04:42:25.000Z,269.35
2023-01-21T04:43:49.000Z,269.31
2023-01-21T04:45:53.000Z,269.24
2023-01-21T04:47:17.000Z,269.19
2023-01-21T04:49:21.000Z,269.12
2023-01-21T04:50:45.000Z,269.04
2023-01-21T04:52:49.000Z,269
2023-01-21T04:54:13.000Z,268.97
2023-01-21T04:56:17.000Z,268.94
2023-01-21T04:57:41.000Z,268.89
2023-01-21T04:59:45.000Z,268.86
2023-01-21T05:01:09.000Z,268.84
2023-01-21T05:03:13.000Z,268.79
2023-01-21T05:04:37.000Z,268.78
2023-01-21T05:06:40.000Z,268.72
2023-01-21T05:08:05.000Z,268.72
2023-01-21T05:10:08.000Z,268.74
2023-01-21T05:11:33.000Z,268.76
2023-01-21T05:13:36.000Z,268.81
2023-01-21T05:15:01.000Z,268.82
2023-01-21T05:17:04.000Z,268.84
2023-01-21T05:19:53.000Z,268.87
2023-01-21T05:21:18.000Z,268.9
2023-01-21T05:23:21.000Z,268.9
2023-01-21T05:24:45.000Z,268.9
2023-01-21T05:26:49.000Z,268.9
2023-01-21T05:28:13.000Z,268.89
2023-01-21T05:30:17.000Z,268.89
2023-01-21T05:31:42.000Z,268.87
2023-01-21T05:33:45.000Z,268.89
2023-01-21T05:35:10.000Z,268.89
2023-01-21T05:37:13.000Z,268.91
2023-01-21T05:38:38.000Z,268.91
2023-01-21T05:40:41.000Z,268.9
2023-01-21T05:42:06.000Z,268.94
2023-01-21T05:44:09.000Z,268.94
2023-01-21T05:45:33.000Z,268.93
2023-01-21T05:47:37.000Z,268.96
2023-01-21T05:49:01.000Z,268.94
2023-01-21T05:51:05.000Z,268.96
2023-01-21T05:52:29.000Z,268.96
2023-01-21T05:54:33.000Z,268.93
2023-01-21T05:58:55.000Z,268.94
2023-01-21T05:59:28.000Z,268.96
2023-01-21T06:00:53.000Z,268.96
2023-01-21T06:02:56.000Z,268.96
2023-01-21T06:04:21.000Z,268.96
2023-01-21T06:06:27.000Z,268.97
2023-01-21T06:07:51.000Z,269
2023-01-21T06:09:55.000Z,268.98
2023-01-21T06:11:19.000Z,269.01
2023-01-21T06:13:23.000Z,269.04
2023-01-21T06:14:47.000Z,269.04
2023-01-21T06:16:51.000Z,269.04
2023-01-21T06:18:15.000Z,269.02
2023-01-21T06:20:19.000Z,269.01
2023-01-21T06:21:43.000Z,269.04
2023-01-21T06:23:47.000Z,269.02
2023-01-21T06:25:11.000Z,269.01
2023-01-21T06:27:15.000Z,269.01
2023-01-21T06:28:39.000Z,269.01
2023-01-21T06:30:43.000Z,269.02
2023-01-21T06:32:07.000Z,269.05
2023-01-21T06:34:11.000Z,269.05
2023-01-21T06:36:54.000Z,269.08
2023-01-21T06:38:19.000Z,269.08
2023-01-21T06:40:22.000Z,269.08
2023-01-21T06:41:47.000Z,269.08
2023-01-21T06:43:50.000Z,269.09
2023-01-21T06:45:15.000Z,269.09
2023-01-21T06:47:18.000Z,269.13
2023-01-21T06:48:42.000Z,269.13
2023-01-21T06:50:46.000Z,269.15
2023-01-21T06:52:10.000Z,269.13
2023-01-21T06:54:14.000Z,269.15
2023-01-21T06:55:38.000Z,269.17
2023-01-21T06:57:41.000Z,269.19
2023-01-21T06:59:06.000Z,269.23
2023-01-21T07:01:09.000Z,269.24
2023-01-21T07:02:34.000Z,269.26
2023-01-21T07:04:37.000Z,269.29
2023-01-21T07:06:02.000Z,269.33
2023-01-21T07:08:05.000Z,269.34
2023-01-21T07:09:30.000Z,269.38
2023-01-21T07:11:33.000Z,269.41
2023-01-21T07:14:22.000Z,269.42
2023-01-21T07:15:47.000Z,269.48
2023-01-21T07:17:50.000Z,269.49
2023-01-21T07:19:15.000Z,269.48
2023-01-21T07:21:18.000Z,269.5
2023-01-21T07:22:43.000Z,269.52
2023-01-21T07:24:46.000Z,269.53
2023-01-21T07:26:10.000Z,269.56
2023-01-21T07:28:14.000Z,269.56
2023-01-21T07:29:38.000Z,269.62
2023-01-21T07:31:42.000Z,269.64
2023-01-21T07:33:06.000Z,269.64
2023-01-21T07:35:10.000Z,269.63
2023-01-21T07:36:34.000Z,269.63
2023-01-21T07:38:38.000Z,269.62
2023-01-21T07:40:02.000Z,269.63
2023-01-21T07:42:06.000Z,269.62
2023-01-21T07:43:30.000Z,269.6
2023-01-21T07:45:34.000Z,269.6
2023-01-21T07:46:58.000Z,269.59
2023-01-21T07:49:01.000Z,269.6
2023-01-21T07:51:51.000Z,269.63
2023-01-21T07:53:15.000Z,269.66
2023-01-21T07:55:18.000Z,269.67
2023-01-21T07:56:43.000Z,269.67
2023-01-21T07:58:47.000Z,269.68
2023-01-21T08:00:11.000Z,269.71
2023-01-21T08:02:15.000Z,269.7
2023-01-21T08:03:39.000Z,269.74
2023-01-21T08:05:43.000Z,269.74
2023-01-21T08:07:07.000Z,269.78
2023-01-21T08:09:11.000Z,269.78
2023-01-21T08:10:35.000Z,269.81
2023-01-21T08:12:39.000Z,269.84
2023-01-21T08:14:03.000Z,269.87
2023-01-21T08:16:07.000Z,269.88
2023-01-21T08:17:31.000Z,269.92
2023-01-21T08:19:34.000Z,269.95
2023-01-21T08:20:59.000Z,269.96
2023-01-21T08:23:02.000Z,269.98
2023-01-21T08:24:27.000Z,270
2023-01-21T08:26:30.000Z,270.07
2023-01-21T08:29:20.000Z,270.14
2023-01-21T08:30:44.000Z,270.2
2023-01-21T08:32:48.000Z,270.24
2023-01-21T08:34:12.000Z,270.26
2023-01-21T08:36:15.000Z,270.28
2023-01-21T08:37:40.000Z,270.29
2023-01-21T08:39:43.000Z,270.31
2023-01-21T08:41:08.000Z,270.31
2023-01-21T08:43:11.000Z,270.35
2023-01-21T08:44:36.000Z,270.36
2023-01-21T08:46:39.000Z,270.38
2023-01-21T08:48:03.000Z,270.36
2023-01-21T08:50:07.000Z,270.39
2023-01-21T08:51:31.000Z,270.42
2023-01-21T08:53:35.000Z,270.45
2023-01-21T08:54:59.000Z,270.45
2023-01-21T08:57:03.000Z,270.47
2023-01-21T08:58:27.000Z,270.47
2023-01-21T09:00:31.000Z,270.45
2023-01-21T09:01:55.000Z,270.46
2023-01-21T09:03:59.000Z,270.45
2023-01-21T09:06:48.000Z,270.43
2023-01-21T09:08:12.000Z,270.46
2023-01-21T09:10:16.000Z,270.46
2023-01-21T09:11:40.000Z,270.46
2023-01-21T09:13:44.000Z,270.45
2023-01-21T09:15:08.000Z,270.46
2023-01-21T09:17:12.000Z,270.43
2023-01-21T09:18:36.000Z,270.42
2023-01-21T09:20:39.000Z,270.45
2023-01-21T09:22:04.000Z,270.45
2023-01-21T09:24:07.000Z,270.47
2023-01-21T09:25:32.000Z,270.47
2023-01-21T09:27:35.000Z,270.46
2023-01-21T09:29:00.000Z,270.47
2023-01-21T09:31:03.000Z,270.47
2023-01-21T09:32:28.000Z,270.46
2023-01-21T09:34:31.000Z,270.47
2023-01-21T09:35:59.000Z,270.49
2023-01-21T09:38:03.000Z,270.49
2023-01-21T09:39:27.000Z,270.47
2023-01-21T09:41:31.000Z,270.47
2023-01-21T09:44:20.000Z,270.5
2023-01-21T09:45:45.000Z,270.53
2023-01-21T09:47:48.000Z,270.54
2023-01-21T09:49:13.000Z,270.57
2023-01-21T09:51:16.000Z,270.57
2023-01-21T09:52:41.000Z,270.58
2023-01-21T09:54:44.000Z,270.58
2023-01-21T09:56:09.000Z,270.61
2023-01-21T09:58:12.000Z,270.62
2023-01-21T09:59:37.000Z,270.65
2023-01-21T10:01:40.000Z,270.65
2023-01-21T10:03:04.000Z,270.67
2023-01-21T10:05:08.000Z,270.67
2023-01-21T10:06:32.000Z,270.7
2023-01-21T10:08:36.000Z,270.7
2023-01-21T10:10:00.000Z,270.72
2023-01-21T10:12:04.000Z,270.74
2023-01-21T10:13:28.000Z,270.74
2023-01-21T10:15:32.000Z,270.79
2023-01-21T10:16:56.000Z,270.8
2023-01-21T10:19:00.000Z,270.81
2023-01-21T10:21:49.000Z,270.84
2023-01-21T10:23:13.000Z,270.84
2023-01-21T10:25:17.000Z,270.86
2023-01-21T10:26:41.000Z,270.86
2023-01-21T10:28:45.000Z,270.87
2023-01-21T10:30:09.000Z,270.9
2023-01-21T10:32:13.000Z,270.92
2023-01-21T10:33:37.000Z,270.92
2023-01-21T10:35:41.000Z,270.95
2023-01-21T10:37:05.000Z,270.97
2023-01-21T10:39:09.000Z,270.98
2023-01-21T10:40:33.000Z,270.98
2023-01-21T10:42:37.000Z,271.01
2023-01-21T10:44:01.000Z,271.04
2023-01-21T10:46:04.000Z,271.05
2023-01-21T10:47:29.000Z,271.09
2023-01-21T10:49:32.000Z,271.11
2023-01-21T10:50:57.000Z,271.08
2023-01-21T10:53:00.000Z,271.11
2023-01-21T10:54:25.000Z,271.12
2023-01-21T10:56:28.000Z,271.13
2023-01-21T10:59:18.000Z,271.16
2023-01-21T11:00:42.000Z,271.19
2023-01-21T11:02:45.000Z,271.22
2023-01-21T11:04:10.000Z,271.22
2023-01-21T11:06:13.000Z,271.22
2023-01-21T11:07:38.000Z,271.23
2023-01-21T11:09:41.000Z,271.26
2023-01-21T11:11:06.000Z,271.26
2023-01-21T11:13:09.000Z,271.27
2023-01-21T11:14:33.000Z,271.3
2023-01-21T11:16:37.000Z,271.31
2023-01-21T11:18:02.000Z,271.34
2023-01-21T11:20:05.000Z,271.35
2023-01-21T11:21:29.000Z,271.35
2023-01-21T11:23:33.000Z,271.38
2023-01-21T11:24:57.000Z,271.39
2023-01-21T11:27:01.000Z,271.45
2023-01-21T11:28:25.000Z,271.48
2023-01-21T11:30:29.000Z,271.51
2023-01-21T11:32:13.000Z,271.59
2023-01-21T11:34:17.000Z,271.6
2023-01-21T11:37:06.000Z,271.69
2023-01-21T11:38:30.000Z,271.74
2023-01-21T11:40:34.000Z,271.78
2023-01-21T11:41:58.000Z,271.8
2023-01-21T11:44:02.000Z,271.83
2023-01-21T11:45:26.000Z,271.85
2023-01-21T11:47:30.000Z,271.85
2023-01-21T11:48:54.000Z,271.87
2023-01-21T11:50:58.000Z,271.84
2023-01-21T11:52:22.000Z,271.85
2023-01-21T11:54:26.000Z,271.84
2023-01-21T11:55:50.000Z,271.84
2023-01-21T11:57:54.000Z,271.87
2023-01-21T11:59:18.000Z,271.88
2023-01-21T12:01:22.000Z,271.89
2023-01-21T12:02:46.000Z,271.96
2023-01-21T12:04:50.000Z,271.98
2023-01-21T12:06:14.000Z,272.05
2023-01-21T12:08:18.000Z,272.05
2023-01-21T12:09:42.000Z,272.1
2023-01-21T12:11:45.000Z,272.12
2023-01-21T12:14:35.000Z,272.15
2023-01-21T12:15:59.000Z,272.17
2023-01-21T12:18:03.000Z,272.19
2023-01-21T12:19:27.000Z,272.22
2023-01-21T12:21:30.000Z,272.22
2023-01-21T12:22:55.000Z,272.23
2023-01-21T12:24:58.000Z,272.22
2023-01-21T12:26:23.000Z,272.23
2023-01-21T12:28:26.000Z,272.22
2023-01-21T12:29:51.000Z,272.23
2023-01-21T12:31:54.000Z,272.22
2023-01-21T12:33:19.000Z,272.25
2023-01-21T12:35:22.000Z,272.26
2023-01-21T12:36:47.000Z,272.28
2023-01-21T12:38:50.000Z,272.28
2023-01-21T12:40:14.000Z,272.28
2023-01-21T12:42:18.000Z,272.28
2023-01-21T12:43:43.000Z,272.29
2023-01-21T12:45:46.000Z,272.28
2023-01-21T12:47:11.000Z,272.29
2023-01-21T12:49:14.000Z,272.26
2023-01-21T12:52:03.000Z,272.26
2023-01-21T12:53:28.000Z,272.29
2023-01-21T12:55:31.000Z,272.25
2023-01-21T12:56:56.000Z,272.23
2023-01-21T12:58:59.000Z,272.23
2023-01-21T13:00:23.000Z,272.23
2023-01-21T13:02:27.000Z,272.23
2023-01-21T13:03:51.000Z,272.23
2023-01-21T13:05:55.000Z,272.25
2023-01-21T13:07:19.000Z,272.25
2023-01-21T13:09:23.000Z,272.26
2023-01-21T13:10:47.000Z,272.29
2023-01-21T13:12:51.000Z,272.29
2023-01-21T13:14:15.000Z,272.3
2023-01-21T13:16:19.000Z,272.3
2023-01-21T13:17:43.000Z,272.29
2023-01-21T13:19:47.000Z,272.29
2023-01-21T13:21:11.000Z,272.29
2023-01-21T13:23:15.000Z,272.28
2023-01-21T13:24:39.000Z,272.26
2023-01-21T13:26:43.000Z,272.25
2023-01-21T13:29:32.000Z,272.26
2023-01-21T13:30:56.000Z,272.26
2023-01-21T13:33:00.000Z,272.26
2023-01-21T13:34:24.000Z,272.26
2023-01-21T13:36:28.000Z,272.26
2023-01-21T13:37:52.000Z,272.26
2023-01-21T13:39:55.000Z,272.26
2023-01-21T13:41:20.000Z,272.26
2023-01-21T13:43:23.000Z,272.28
2023-01-21T13:44:48.000Z,272.26
2023-01-21T13:46:51.000Z,272.26
2023-01-21T13:48:16.000Z,272.28
2023-01-21T13:50:19.000Z,272.29
2023-01-21T13:51:44.000Z,272.3
2023-01-21T13:53:47.000Z,272.3
2023-01-21T13:55:12.000Z,272.32
2023-01-21T13:57:15.000Z,272.33
2023-01-21T13:58:40.000Z,272.32
2023-01-21T14:00:43.000Z,272.32
2023-01-21T14:02:08.000Z,272.33
2023-01-21T14:04:11.000Z,272.32
2023-01-21T14:07:01.000Z,272.35
2023-01-21T14:08:25.000Z,272.33
2023-01-21T14:10:28.000Z,272.33
2023-01-21T14:11:53.000Z,272.32
2023-01-21T14:13:56.000Z,272.32
2023-01-21T14:15:21.000Z,272.3
2023-01-21T14:17:24.000Z,272.3
2023-01-21T14:18:49.000Z,272.3
2023-01-21T14:20:52.000Z,272.29
2023-01-21T14:22:17.000Z,272.28
2023-01-21T14:24:20.000Z,272.28
2023-01-21T14:25:45.000Z,272.28
2023-01-21T14:27:48.000Z,272.26
2023-01-21T14:29:13.000Z,272.26
2023-01-21T14:31:16.000Z,272.28
2023-01-21T14:32:41.000Z,272.26
2023-01-21T14:34:44.000Z,272.28
2023-01-21T14:36:08.000Z,272.26
2023-01-21T14:38:12.000Z,272.26
2023-01-21T14:39:36.000Z,272.26
2023-01-21T14:41:40.000Z,272.25
2023-01-21T14:44:29.000Z,272.25
2023-01-21T14:45:54.000Z,272.22
2023-01-21T14:47:57.000Z,272.25
2023-01-21T14:49:22.000Z,272.22
2023-01-21T14:51:25.000Z,272.22
2023-01-21T14:52:49.000Z,272.22
2023-01-21T14:54:53.000Z,272.21
2023-01-21T14:56:17.000Z,272.21
2023-01-21T14:58:21.000Z,272.21
2023-01-21T14:59:45.000Z,272.19
2023-01-21T15:01:49.000Z,272.19
2023-01-21T15:03:13.000Z,272.18
2023-01-21T15:05:17.000Z,272.18
2023-01-21T15:06:42.000Z,272.17
2023-01-21T15:08:45.000Z,272.18
2023-01-21T15:10:10.000Z,272.18
2023-01-21T15:12:14.000Z,272.18
2023-01-21T15:13:38.000Z,272.18
2023-01-21T15:15:42.000Z,272.17
2023-01-21T15:17:06.000Z,272.18
2023-01-21T15:19:09.000Z,272.17
2023-01-21T15:21:59.000Z,272.17
2023-01-21T15:23:23.000Z,272.15
2023-01-21T15:25:27.000Z,272.14
2023-01-21T15:26:51.000Z,272.14
2023-01-21T15:28:54.000Z,272.14
2023-01-21T15:30:19.000Z,272.12
2023-01-21T15:32:22.000Z,272.12
2023-01-21T15:33:47.000Z,272.14
2023-01-21T15:35:50.000Z,272.11
2023-01-21T15:37:15.000Z,272.12
2023-01-21T15:39:18.000Z,272.12
2023-01-21T15:40:43.000Z,272.11
2023-01-21T15:42:46.000Z,272.11
2023-01-21T15:44:11.000Z,272.1
2023-01-21T15:46:14.000Z,272.1
2023-01-21T15:47:39.000Z,272.08
2023-01-21T15:49:42.000Z,272.1
2023-01-21T15:51:06.000Z,272.08
2023-01-21T15:53:10.000Z,272.08
2023-01-21T15:54:34.000Z,272.08
2023-01-21T15:56:38.000Z,272.07
2023-01-21T15:59:27.000Z,272.05
2023-01-21T16:00:52.000Z,272.03
2023-01-21T16:02:55.000Z,272.03
2023-01-21T16:04:20.000Z,272.03
2023-01-21T16:06:23.000Z,272.01
2023-01-21T16:07:47.000Z,272.03
2023-01-21T16:09:51.000Z,272.03
2023-01-21T16:11:15.000Z,272.03
2023-01-21T16:13:19.000Z,272.03
2023-01-21T16:14:43.000Z,272.01
2023-01-21T16:16:47.000Z,272
2023-01-21T16:18:11.000Z,272
2023-01-21T16:20:15.000Z,272.01
2023-01-21T16:21:39.000Z,272.01
2023-01-21T16:23:43.000Z,272
2023-01-21T16:25:07.000Z,272.01
2023-01-21T16:27:10.000Z,272.01
2023-01-21T16:28:35.000Z,272.01
2023-01-21T16:30:38.000Z,272.01
2023-01-21T16:32:03.000Z,272
2023-01-21T16:34:07.000Z,272
2023-01-21T16:36:56.000Z,272
2023-01-21T16:38:20.000Z,271.98
2023-01-21T16:40:24.000Z,271.98
2023-01-21T16:41:48.000Z,271.97
2023-01-21T16:43:52.000Z,271.96
2023-01-21T16:45:16.000Z,271.96
2023-01-21T16:47:20.000Z,271.96
2023-01-21T16:48:45.000Z,271.97
2023-01-21T16:50:48.000Z,271.96
2023-01-21T16:52:13.000Z,271.94
2023-01-21T16:54:16.000Z,271.96
2023-01-21T16:55:41.000Z,271.92
2023-01-21T16:57:44.000Z,271.89
2023-01-21T16:59:09.000Z,271.92
2023-01-21T17:01:12.000Z,271.92
2023-01-21T17:02:37.000Z,271.88
2023-01-21T17:04:40.000Z,271.89
2023-01-21T17:06:05.000Z,271.89
2023-01-21T17:08:08.000Z,271.88
2023-01-21T17:09:32.000Z,271.88
2023-01-21T17:11:36.000Z,271.88
2023-01-21T17:14:25.000Z,271.88
2023-01-21T17:15:49.000Z,271.87
2023-01-21T17:17:53.000Z,271.87
2023-01-21T17:19:17.000Z,271.88
2023-01-21T17:21:21.000Z,271.87
2023-01-21T17:22:45.000Z,271.87
2023-01-21T17:24:49.000Z,271.88
2023-01-21T17:26:13.000Z,271.89
2023-01-21T17:28:16.000Z,271.88
2023-01-21T17:29:41.000Z,271.88
2023-01-21T17:31:47.000Z,271.87
2023-01-21T17:33:12.000Z,271.88
2023-01-21T17:35:15.000Z,271.88
2023-01-21T17:36:41.000Z,271.89
2023-01-21T17:38:44.000Z,271.92
2023-01-21T17:40:08.000Z,271.92
2023-01-21T17:42:12.000Z,271.92
2023-01-21T17:43:36.000Z,271.94
2023-01-21T17:45:40.000Z,271.89
2023-01-21T17:47:04.000Z,271.88
2023-01-21T17:49:08.000Z,271.88
2023-01-21T17:51:57.000Z,271.88
2023-01-21T17:53:22.000Z,271.87
2023-01-21T17:55:25.000Z,271.85
2023-01-21T17:56:49.000Z,271.85
2023-01-21T17:58:53.000Z,271.84
2023-01-21T18:00:17.000Z,271.85
2023-01-21T18:02:21.000Z,271.87
2023-01-21T18:03:45.000Z,271.87
2023-01-21T18:05:49.000Z,271.88
2023-01-21T18:07:13.000Z,271.88
2023-01-21T18:09:17.000Z,271.85
2023-01-21T18:10:41.000Z,271.87
2023-01-21T18:12:45.000Z,271.88
2023-01-21T18:14:09.000Z,271.89
2023-01-21T18:16:13.000Z,271.92
2023-01-21T18:17:37.000Z,271.96
2023-01-21T18:19:41.000Z,271.96
2023-01-21T18:21:05.000Z,271.98
2023-01-21T18:23:09.000Z,271.98
2023-01-21T18:24:33.000Z,271.97
2023-01-21T18:26:37.000Z,271.98
2023-01-21T18:29:26.000Z,272
2023-01-21T18:30:51.000Z,272
2023-01-21T18:32:54.000Z,271.98
2023-01-21T18:34:19.000Z,272
2023-01-21T18:36:22.000Z,272
2023-01-21T18:37:46.000Z,272.01
2023-01-21T18:39:50.000Z,272.03
2023-01-21T18:41:14.000Z,272.07
2023-01-21T18:43:18.000Z,272.08
2023-01-21T18:44:42.000Z,272.1
2023-01-21T18:46:46.000Z,272.11
2023-01-21T18:48:10.000Z,272.1
2023-01-21T18:50:14.000Z,272.11
2023-01-21T18:51:38.000Z,272.12
2023-01-21T18:53:42.000Z,272.12
2023-01-21T18:55:06.000Z,272.12
2023-01-21T18:57:10.000Z,272.12
2023-01-21T18:58:34.000Z,272.14
2023-01-21T19:00:37.000Z,272.15
2023-01-21T19:02:02.000Z,272.17
2023-01-21T19:04:06.000Z,272.17
2023-01-21T19:06:58.000Z,272.19
2023-01-21T19:08:22.000Z,272.22
2023-01-21T19:10:26.000Z,272.23
2023-01-21T19:11:50.000Z,272.22
2023-01-21T19:13:54.000Z,272.25
2023-01-21T19:15:18.000Z,272.25
2023-01-21T19:17:21.000Z,272.25
2023-01-21T19:18:46.000Z,272.26
2023-01-21T19:20:49.000Z,272.25
2023-01-21T19:22:14.000Z,272.28
2023-01-21T19:24:17.000Z,272.3
2023-01-21T19:25:42.000Z,272.33
2023-01-21T19:27:45.000Z,272.33
2023-01-21T19:29:10.000Z,272.32
2023-01-21T19:31:13.000Z,272.32
2023-01-21T19:32:38.000Z,272.3
2023-01-21T19:34:41.000Z,272.32
2023-01-21T19:36:06.000Z,272.33
2023-01-21T19:38:09.000Z,272.35
2023-01-21T19:39:34.000Z,272.36
2023-01-21T19:41:37.000Z,272.35
2023-01-21T19:44:27.000Z,272.33
2023-01-21T19:45:51.000Z,272.33
2023-01-21T19:47:54.000Z,272.35
2023-01-21T19:49:19.000Z,272.32
2023-01-21T19:51:22.000Z,272.33
2023-01-21T19:52:47.000Z,272.35
2023-01-21T19:54:50.000Z,272.36
2023-01-21T20:00:47.000Z,272.32
2023-01-21T20:02:50.000Z,272.33
2023-01-21T20:04:15.000Z,272.32
2023-01-21T20:06:18.000Z,272.29
2023-01-21T20:07:42.000Z,272.29
2023-01-21T20:09:46.000Z,272.28
2023-01-21T20:11:10.000Z,272.25
2023-01-21T20:13:14.000Z,272.26
2023-01-21T20:14:38.000Z,272.25
2023-01-21T20:16:42.000Z,272.23
2023-01-21T20:18:06.000Z,272.25
2023-01-21T20:20:10.000Z,272.25
2023-01-21T20:22:59.000Z,272.22
2023-01-21T20:24:24.000Z,272.22
2023-01-21T20:26:27.000Z,272.22
2023-01-21T20:27:52.000Z,272.19
2023-01-21T20:29:55.000Z,272.19
2023-01-21T20:31:38.000Z,272.19
2023-01-21T20:33:41.000Z,272.18
2023-01-21T20:35:08.000Z,272.18
2023-01-21T20:37:11.000Z,272.14
2023-01-21T20:38:36.000Z,272.12
2023-01-21T20:40:39.000Z,272.12
2023-01-21T20:42:04.000Z,272.12
2023-01-21T20:44:07.000Z,272.12
2023-01-21T20:45:31.000Z,272.14
2023-01-21T20:47:35.000Z,272.12
2023-01-21T20:49:07.000Z,272.11
2023-01-21T20:51:11.000Z,272.1
2023-01-21T20:52:35.000Z,272.11
2023-01-21T20:54:39.000Z,272.11
2023-01-21T20:56:03.000Z,272.1
2023-01-21T20:58:07.000Z,272.11
2023-01-21T21:00:56.000Z,272.11
2023-01-21T21:02:20.000Z,272.11
2023-01-21T21:04:24.000Z,272.11
2023-01-21T21:05:48.000Z,272.11
2023-01-21T21:07:51.000Z,272.11
2023-01-21T21:09:16.000Z,272.1
2023-01-21T21:11:19.000Z,272.1
2023-01-21T21:12:44.000Z,272.1
2023-01-21T21:14:47.000Z,272.1
2023-01-21T21:16:11.000Z,272.1
2023-01-21T21:18:15.000Z,272.11
2023-01-21T21:19:39.000Z,272.1
2023-01-21T21:21:43.000Z,272.1
2023-01-21T21:23:07.000Z,272.12
2023-01-21T21:25:10.000Z,272.14
2023-01-21T21:26:35.000Z,272.12
2023-01-21T21:28:38.000Z,272.14
2023-01-21T21:30:03.000Z,272.15
2023-01-21T21:32:06.000Z,272.14
2023-01-21T21:33:31.000Z,272.14
2023-01-21T21:35:34.000Z,272.15
2023-01-21T21:39:56.000Z,272.12
2023-01-21T21:41:55.000Z,272.14
2023-01-21T21:43:19.000Z,272.15
2023-01-21T21:45:23.000Z,272.15
2023-01-21T21:46:47.000Z,272.15
2023-01-21T21:48:51.000Z,272.14
2023-01-21T21:50:15.000Z,272.15
2023-01-21T21:52:19.000Z,272.17
2023-01-21T21:53:43.000Z,272.18
2023-01-21T21:55:46.000Z,272.19
2023-01-21T21:57:11.000Z,272.18
2023-01-21T21:59:14.000Z,272.18
2023-01-21T22:00:39.000Z,272.19
2023-01-21T22:02:42.000Z,272.18
2023-01-21T22:04:07.000Z,272.18
2023-01-21T22:06:10.000Z,272.19
2023-01-21T22:07:35.000Z,272.21
2023-01-21T22:09:38.000Z,272.21
2023-01-21T22:11:03.000Z,272.22
2023-01-21T22:13:06.000Z,272.21
2023-01-21T22:14:31.000Z,272.23
2023-01-21T22:16:34.000Z,272.23
2023-01-21T22:19:23.000Z,272.23
2023-01-21T22:20:48.000Z,272.25
2023-01-21T22:22:51.000Z,272.28
2023-01-21T22:24:16.000Z,272.29
2023-01-21T22:26:19.000Z,272.29
2023-01-21T22:27:44.000Z,272.29
2023-01-21T22:29:47.000Z,272.29